sensor_id;sensor_type;location;lat;lon;timestamp;P1;durP1;ratioP1;P2;durP2;ratioP2
10293;SDS011;5192;50.328;7.610;2023-04-16T00:00:04;23.63;;;17.63;;
10293;SDS011;5192;50.328;7.610;2023-04-16T00:02:32;23.03;;;17.63;;
10293;SDS011;5192;50.328;7.610;2023-04-16T00:04:58;24.37;;;17.60;;
10293;SDS011;5192;50.328;7.610;2023-04-16T00:07:25;22.67;;;17.73;;
10293;SDS011;5192;50.328;7.610;2023-04-16T00:09:52;23.47;;;16.73;;
10293;SDS011;5192;50.328;7.610;2023-04-16T00:12:19;23.67;;;19.40;;
10293;SDS011;5192;50.328;7.610;2023-04-16T00:14:47;25.27;;;18.60;;
10293;SDS011;5192;50.328;7.610;2023-04-16T00:17:15;21.73;;;16.83;;
10293;SDS011;5192;50.328;7.610;2023-04-16T00:19:42;23.63;;;18.00;;
10293;SDS011;5192;50.328;7.610;2023-04-16T00:22:09;25.23;;;19.17;;
10293;SDS011;5192;50.328;7.610;2023-04-16T00:24:36;26.10;;;17.80;;
10293;SDS011;5192;50.328;7.610;2023-04-16T00:27:02;24.47;;;18.23;;
10293;SDS011;5192;50.328;7.610;2023-04-16T00:29:30;23.83;;;18.27;;
10293;SDS011;5192;50.328;7.610;2023-04-16T00:31:57;24.80;;;18.23;;
10293;SDS011;5192;50.328;7.610;2023-04-16T00:34:23;27.63;;;19.57;;
10293;SDS011;5192;50.328;7.610;2023-04-16T00:36:51;24.60;;;19.37;;
10293;SDS011;5192;50.328;7.610;2023-04-16T00:39:19;24.47;;;18.47;;
10293;SDS011;5192;50.328;7.610;2023-04-16T00:41:47;25.37;;;18.07;;
10293;SDS011;5192;50.328;7.610;2023-04-16T00:44:15;28.73;;;21.33;;
10293;SDS011;5192;50.328;7.610;2023-04-16T00:46:42;30.70;;;19.00;;
10293;SDS011;5192;50.328;7.610;2023-04-16T00:49:11;28.87;;;19.27;;
10293;SDS011;5192;50.328;7.610;2023-04-16T00:51:40;30.00;;;22.07;;
10293;SDS011;5192;50.328;7.610;2023-04-16T00:54:08;28.33;;;19.93;;
10293;SDS011;5192;50.328;7.610;2023-04-16T00:56:36;27.77;;;19.80;;
10293;SDS011;5192;50.328;7.610;2023-04-16T00:59:04;31.73;;;20.70;;
10293;SDS011;5192;50.328;7.610;2023-04-16T01:01:30;28.77;;;19.37;;
10293;SDS011;5192;50.328;7.610;2023-04-16T01:03:57;27.03;;;19.30;;
10293;SDS011;5192;50.328;7.610;2023-04-16T01:06:25;28.90;;;19.97;;
10293;SDS011;5192;50.328;7.610;2023-04-16T01:08:53;30.97;;;20.43;;
10293;SDS011;5192;50.328;7.610;2023-04-16T01:11:20;29.87;;;20.93;;
10293;SDS011;5192;50.328;7.610;2023-04-16T01:13:47;32.87;;;21.67;;
10293;SDS011;5192;50.328;7.610;2023-04-16T01:16:15;36.03;;;21.20;;
10293;SDS011;5192;50.328;7.610;2023-04-16T01:18:41;29.03;;;20.23;;
10293;SDS011;5192;50.328;7.610;2023-04-16T01:21:06;30.77;;;20.57;;
10293;SDS011;5192;50.328;7.610;2023-04-16T01:23:33;30.13;;;19.20;;
10293;SDS011;5192;50.328;7.610;2023-04-16T01:25:59;30.83;;;20.93;;
10293;SDS011;5192;50.328;7.610;2023-04-16T01:28:25;31.47;;;20.37;;
10293;SDS011;5192;50.328;7.610;2023-04-16T01:30:53;34.70;;;20.93;;
10293;SDS011;5192;50.328;7.610;2023-04-16T01:33:21;31.53;;;21.27;;
10293;SDS011;5192;50.328;7.610;2023-04-16T01:35:49;35.63;;;21.53;;
10293;SDS011;5192;50.328;7.610;2023-04-16T01:38:15;36.20;;;22.93;;
10293;SDS011;5192;50.328;7.610;2023-04-16T01:40:43;38.13;;;22.13;;
10293;SDS011;5192;50.328;7.610;2023-04-16T01:43:10;35.73;;;21.70;;
10293;SDS011;5192;50.328;7.610;2023-04-16T01:45:37;34.33;;;22.77;;
10293;SDS011;5192;50.328;7.610;2023-04-16T01:48:04;33.30;;;21.33;;
10293;SDS011;5192;50.328;7.610;2023-04-16T01:50:33;33.33;;;20.80;;
10293;SDS011;5192;50.328;7.610;2023-04-16T01:53:02;36.60;;;20.90;;
10293;SDS011;5192;50.328;7.610;2023-04-16T01:55:32;38.70;;;22.00;;
10293;SDS011;5192;50.328;7.610;2023-04-16T01:58:01;31.03;;;21.20;;
10293;SDS011;5192;50.328;7.610;2023-04-16T02:00:26;34.00;;;21.37;;
10293;SDS011;5192;50.328;7.610;2023-04-16T02:02:54;34.03;;;21.73;;
10293;SDS011;5192;50.328;7.610;2023-04-16T02:05:20;33.57;;;20.93;;
10293;SDS011;5192;50.328;7.610;2023-04-16T02:07:47;36.60;;;21.00;;
10293;SDS011;5192;50.328;7.610;2023-04-16T02:10:12;33.20;;;21.53;;
10293;SDS011;5192;50.328;7.610;2023-04-16T02:12:38;35.83;;;22.13;;
10293;SDS011;5192;50.328;7.610;2023-04-16T02:15:05;37.27;;;21.77;;
10293;SDS011;5192;50.328;7.610;2023-04-16T02:17:33;37.53;;;22.97;;
10293;SDS011;5192;50.328;7.610;2023-04-16T02:19:58;39.20;;;23.50;;
10293;SDS011;5192;50.328;7.610;2023-04-16T02:22:28;38.40;;;22.60;;
10293;SDS011;5192;50.328;7.610;2023-04-16T02:24:55;38.23;;;22.60;;
10293;SDS011;5192;50.328;7.610;2023-04-16T02:27:22;43.03;;;24.13;;
10293;SDS011;5192;50.328;7.610;2023-04-16T02:29:49;42.60;;;24.63;;
10293;SDS011;5192;50.328;7.610;2023-04-16T02:32:17;43.30;;;24.83;;
10293;SDS011;5192;50.328;7.610;2023-04-16T02:34:45;43.10;;;24.57;;
10293;SDS011;5192;50.328;7.610;2023-04-16T02:37:12;43.47;;;26.67;;
10293;SDS011;5192;50.328;7.610;2023-04-16T02:39:41;45.40;;;26.20;;
10293;SDS011;5192;50.328;7.610;2023-04-16T02:42:09;47.03;;;26.27;;
10293;SDS011;5192;50.328;7.610;2023-04-16T02:44:36;49.73;;;27.17;;
10293;SDS011;5192;50.328;7.610;2023-04-16T02:47:04;47.17;;;25.50;;
10293;SDS011;5192;50.328;7.610;2023-04-16T02:49:31;52.13;;;28.07;;
10293;SDS011;5192;50.328;7.610;2023-04-16T02:51:57;46.10;;;27.73;;
10293;SDS011;5192;50.328;7.610;2023-04-16T02:54:24;49.00;;;28.43;;
10293;SDS011;5192;50.328;7.610;2023-04-16T02:56:51;44.17;;;26.37;;
10293;SDS011;5192;50.328;7.610;2023-04-16T02:59:22;51.03;;;27.33;;
10293;SDS011;5192;50.328;7.610;2023-04-16T03:01:49;51.40;;;27.53;;
10293;SDS011;5192;50.328;7.610;2023-04-16T03:04:16;49.90;;;27.17;;
10293;SDS011;5192;50.328;7.610;2023-04-16T03:06:43;47.37;;;26.50;;
10293;SDS011;5192;50.328;7.610;2023-04-16T03:09:10;43.43;;;26.00;;
10293;SDS011;5192;50.328;7.610;2023-04-16T03:11:38;49.57;;;27.23;;
10293;SDS011;5192;50.328;7.610;2023-04-16T03:14:06;52.50;;;25.97;;
10293;SDS011;5192;50.328;7.610;2023-04-16T03:16:35;50.40;;;27.30;;
10293;SDS011;5192;50.328;7.610;2023-04-16T03:19:01;47.07;;;26.73;;
10293;SDS011;5192;50.328;7.610;2023-04-16T03:21:28;47.70;;;27.17;;
10293;SDS011;5192;50.328;7.610;2023-04-16T03:23:56;47.60;;;26.93;;
10293;SDS011;5192;50.328;7.610;2023-04-16T03:26:23;47.30;;;25.97;;
10293;SDS011;5192;50.328;7.610;2023-04-16T03:28:49;47.40;;;26.13;;
10293;SDS011;5192;50.328;7.610;2023-04-16T03:31:18;46.47;;;26.20;;
10293;SDS011;5192;50.328;7.610;2023-04-16T03:33:48;46.10;;;25.40;;
10293;SDS011;5192;50.328;7.610;2023-04-16T03:36:15;47.50;;;26.20;;
10293;SDS011;5192;50.328;7.610;2023-04-16T03:38:43;49.83;;;25.97;;
10293;SDS011;5192;50.328;7.610;2023-04-16T03:41:13;46.50;;;25.70;;
10293;SDS011;5192;50.328;7.610;2023-04-16T03:43:41;50.40;;;25.67;;
10293;SDS011;5192;50.328;7.610;2023-04-16T03:46:08;42.63;;;24.03;;
10293;SDS011;5192;50.328;7.610;2023-04-16T03:48:35;45.70;;;24.77;;
10293;SDS011;5192;50.328;7.610;2023-04-16T03:51:01;43.60;;;24.10;;
10293;SDS011;5192;50.328;7.610;2023-04-16T03:53:27;40.77;;;23.70;;
10293;SDS011;5192;50.328;7.610;2023-04-16T03:55:52;47.70;;;24.67;;
10293;SDS011;5192;50.328;7.610;2023-04-16T03:58:19;44.13;;;24.20;;
10293;SDS011;5192;50.328;7.610;2023-04-16T04:00:46;41.53;;;24.27;;
10293;SDS011;5192;50.328;7.610;2023-04-16T04:03:13;39.70;;;23.27;;
10293;SDS011;5192;50.328;7.610;2023-04-16T04:05:43;41.97;;;24.53;;
10293;SDS011;5192;50.328;7.610;2023-04-16T04:08:09;41.53;;;22.90;;
10293;SDS011;5192;50.328;7.610;2023-04-16T04:10:36;39.90;;;23.53;;
10293;SDS011;5192;50.328;7.610;2023-04-16T04:13:03;43.33;;;24.67;;
10293;SDS011;5192;50.328;7.610;2023-04-16T04:15:32;42.73;;;23.50;;
10293;SDS011;5192;50.328;7.610;2023-04-16T04:17:59;47.40;;;23.83;;
10293;SDS011;5192;50.328;7.610;2023-04-16T04:20:24;44.17;;;23.90;;
10293;SDS011;5192;50.328;7.610;2023-04-16T04:22:53;44.50;;;24.07;;
10293;SDS011;5192;50.328;7.610;2023-04-16T04:25:20;44.63;;;23.63;;
10293;SDS011;5192;50.328;7.610;2023-04-16T04:27:45;42.07;;;23.93;;
10293;SDS011;5192;50.328;7.610;2023-04-16T04:30:14;44.40;;;23.57;;
10293;SDS011;5192;50.328;7.610;2023-04-16T04:32:39;42.13;;;22.67;;
10293;SDS011;5192;50.328;7.610;2023-04-16T04:35:07;41.77;;;23.40;;
10293;SDS011;5192;50.328;7.610;2023-04-16T04:37:35;44.73;;;23.70;;
10293;SDS011;5192;50.328;7.610;2023-04-16T04:40:03;37.67;;;22.67;;
10293;SDS011;5192;50.328;7.610;2023-04-16T04:42:31;42.70;;;24.60;;
10293;SDS011;5192;50.328;7.610;2023-04-16T04:45:00;40.37;;;22.57;;
10293;SDS011;5192;50.328;7.610;2023-04-16T04:47:27;43.67;;;22.10;;
10293;SDS011;5192;50.328;7.610;2023-04-16T04:49:54;45.13;;;24.33;;
10293;SDS011;5192;50.328;7.610;2023-04-16T04:52:22;46.33;;;23.73;;
10293;SDS011;5192;50.328;7.610;2023-04-16T04:54:49;46.07;;;24.97;;
10293;SDS011;5192;50.328;7.610;2023-04-16T04:57:16;39.33;;;24.17;;
10293;SDS011;5192;50.328;7.610;2023-04-16T04:59:42;44.63;;;25.53;;
10293;SDS011;5192;50.328;7.610;2023-04-16T05:02:09;42.17;;;23.53;;
10293;SDS011;5192;50.328;7.610;2023-04-16T05:04:36;43.67;;;23.67;;
10293;SDS011;5192;50.328;7.610;2023-04-16T05:07:04;40.47;;;22.87;;
10293;SDS011;5192;50.328;7.610;2023-04-16T05:09:32;45.83;;;24.87;;
10293;SDS011;5192;50.328;7.610;2023-04-16T05:12:01;41.80;;;22.97;;
10293;SDS011;5192;50.328;7.610;2023-04-16T05:14:28;43.00;;;23.13;;
10293;SDS011;5192;50.328;7.610;2023-04-16T05:16:55;39.83;;;22.80;;
10293;SDS011;5192;50.328;7.610;2023-04-16T05:19:23;36.60;;;20.50;;
10293;SDS011;5192;50.328;7.610;2023-04-16T05:21:50;44.93;;;23.53;;
10293;SDS011;5192;50.328;7.610;2023-04-16T05:24:17;46.50;;;23.97;;
10293;SDS011;5192;50.328;7.610;2023-04-16T05:26:45;40.40;;;22.97;;
10293;SDS011;5192;50.328;7.610;2023-04-16T05:29:12;42.93;;;23.23;;
10293;SDS011;5192;50.328;7.610;2023-04-16T05:31:39;41.77;;;22.23;;
10293;SDS011;5192;50.328;7.610;2023-04-16T05:34:07;41.30;;;22.83;;
10293;SDS011;5192;50.328;7.610;2023-04-16T05:36:33;41.47;;;22.97;;
10293;SDS011;5192;50.328;7.610;2023-04-16T05:39:00;40.93;;;23.20;;
10293;SDS011;5192;50.328;7.610;2023-04-16T05:41:26;45.43;;;24.03;;
10293;SDS011;5192;50.328;7.610;2023-04-16T05:43:53;47.50;;;24.07;;
10293;SDS011;5192;50.328;7.610;2023-04-16T05:46:21;41.23;;;22.80;;
10293;SDS011;5192;50.328;7.610;2023-04-16T05:48:48;39.03;;;22.57;;
10293;SDS011;5192;50.328;7.610;2023-04-16T05:51:16;40.23;;;23.73;;
10293;SDS011;5192;50.328;7.610;2023-04-16T05:53:42;42.83;;;23.07;;
10293;SDS011;5192;50.328;7.610;2023-04-16T05:56:10;41.83;;;23.47;;
10293;SDS011;5192;50.328;7.610;2023-04-16T05:58:37;43.07;;;24.77;;
10293;SDS011;5192;50.328;7.610;2023-04-16T06:01:03;43.33;;;25.17;;
10293;SDS011;5192;50.328;7.610;2023-04-16T06:03:30;43.43;;;23.57;;
10293;SDS011;5192;50.328;7.610;2023-04-16T06:05:57;41.43;;;22.97;;
10293;SDS011;5192;50.328;7.610;2023-04-16T06:08:24;48.63;;;25.40;;
10293;SDS011;5192;50.328;7.610;2023-04-16T06:10:50;44.27;;;24.07;;
10293;SDS011;5192;50.328;7.610;2023-04-16T06:13:17;42.77;;;23.37;;
10293;SDS011;5192;50.328;7.610;2023-04-16T06:15:45;42.27;;;23.40;;
10293;SDS011;5192;50.328;7.610;2023-04-16T06:18:12;39.97;;;21.73;;
10293;SDS011;5192;50.328;7.610;2023-04-16T06:20:39;42.60;;;24.10;;
10293;SDS011;5192;50.328;7.610;2023-04-16T06:23:07;40.00;;;23.60;;
10293;SDS011;5192;50.328;7.610;2023-04-16T06:25:35;44.07;;;24.03;;
10293;SDS011;5192;50.328;7.610;2023-04-16T06:28:02;37.63;;;24.00;;
10293;SDS011;5192;50.328;7.610;2023-04-16T06:30:29;38.30;;;21.50;;
10293;SDS011;5192;50.328;7.610;2023-04-16T06:32:55;37.80;;;22.20;;
10293;SDS011;5192;50.328;7.610;2023-04-16T06:35:23;38.87;;;23.33;;
10293;SDS011;5192;50.328;7.610;2023-04-16T06:37:49;40.53;;;22.63;;
10293;SDS011;5192;50.328;7.610;2023-04-16T06:40:16;37.30;;;22.80;;
10293;SDS011;5192;50.328;7.610;2023-04-16T06:42:45;37.00;;;22.87;;
10293;SDS011;5192;50.328;7.610;2023-04-16T06:45:12;33.57;;;21.10;;
10293;SDS011;5192;50.328;7.610;2023-04-16T06:47:39;37.53;;;22.63;;
10293;SDS011;5192;50.328;7.610;2023-04-16T06:50:05;36.00;;;22.43;;
10293;SDS011;5192;50.328;7.610;2023-04-16T06:52:31;40.60;;;23.90;;
10293;SDS011;5192;50.328;7.610;2023-04-16T06:55:00;39.43;;;22.50;;
10293;SDS011;5192;50.328;7.610;2023-04-16T06:57:27;41.23;;;24.27;;
10293;SDS011;5192;50.328;7.610;2023-04-16T06:59:52;42.97;;;23.80;;
10293;SDS011;5192;50.328;7.610;2023-04-16T07:02:20;43.73;;;25.47;;
10293;SDS011;5192;50.328;7.610;2023-04-16T07:04:49;40.33;;;23.83;;
10293;SDS011;5192;50.328;7.610;2023-04-16T07:07:17;44.17;;;25.13;;
10293;SDS011;5192;50.328;7.610;2023-04-16T07:09:44;45.57;;;26.73;;
10293;SDS011;5192;50.328;7.610;2023-04-16T07:12:11;39.70;;;24.03;;
10293;SDS011;5192;50.328;7.610;2023-04-16T07:14:39;45.00;;;25.03;;
10293;SDS011;5192;50.328;7.610;2023-04-16T07:17:06;47.27;;;26.03;;
10293;SDS011;5192;50.328;7.610;2023-04-16T07:19:34;44.00;;;25.90;;
10293;SDS011;5192;50.328;7.610;2023-04-16T07:22:01;41.00;;;24.83;;
10293;SDS011;5192;50.328;7.610;2023-04-16T07:24:29;44.00;;;25.90;;
10293;SDS011;5192;50.328;7.610;2023-04-16T07:26:58;41.40;;;25.53;;
10293;SDS011;5192;50.328;7.610;2023-04-16T07:29:23;39.27;;;20.53;;
10293;SDS011;5192;50.328;7.610;2023-04-16T07:31:50;45.10;;;24.13;;
10293;SDS011;5192;50.328;7.610;2023-04-16T07:34:19;42.77;;;24.23;;
10293;SDS011;5192;50.328;7.610;2023-04-16T07:36:47;47.43;;;26.10;;
10293;SDS011;5192;50.328;7.610;2023-04-16T07:39:14;55.10;;;27.80;;
10293;SDS011;5192;50.328;7.610;2023-04-16T07:41:42;46.50;;;26.10;;
10293;SDS011;5192;50.328;7.610;2023-04-16T07:44:11;43.40;;;25.50;;
10293;SDS011;5192;50.328;7.610;2023-04-16T07:46:40;44.23;;;24.50;;
10293;SDS011;5192;50.328;7.610;2023-04-16T07:49:06;46.17;;;24.80;;
10293;SDS011;5192;50.328;7.610;2023-04-16T07:51:33;41.03;;;23.17;;
10293;SDS011;5192;50.328;7.610;2023-04-16T07:54:02;40.90;;;23.53;;
10293;SDS011;5192;50.328;7.610;2023-04-16T07:56:29;42.70;;;24.90;;
10293;SDS011;5192;50.328;7.610;2023-04-16T07:58:56;42.03;;;23.90;;
10293;SDS011;5192;50.328;7.610;2023-04-16T08:01:23;40.30;;;23.13;;
10293;SDS011;5192;50.328;7.610;2023-04-16T08:03:52;42.07;;;23.23;;
10293;SDS011;5192;50.328;7.610;2023-04-16T08:06:20;42.47;;;22.27;;
10293;SDS011;5192;50.328;7.610;2023-04-16T08:08:48;36.47;;;21.93;;
10293;SDS011;5192;50.328;7.610;2023-04-16T08:11:15;38.53;;;22.07;;
10293;SDS011;5192;50.328;7.610;2023-04-16T08:13:41;36.13;;;22.00;;
10293;SDS011;5192;50.328;7.610;2023-04-16T08:16:08;38.53;;;22.77;;
10293;SDS011;5192;50.328;7.610;2023-04-16T08:18:34;36.60;;;21.80;;
10293;SDS011;5192;50.328;7.610;2023-04-16T08:21:02;39.00;;;22.43;;
10293;SDS011;5192;50.328;7.610;2023-04-16T08:23:30;37.53;;;22.10;;
10293;SDS011;5192;50.328;7.610;2023-04-16T08:25:59;34.20;;;21.63;;
10293;SDS011;5192;50.328;7.610;2023-04-16T08:28:26;42.83;;;21.33;;
10293;SDS011;5192;50.328;7.610;2023-04-16T08:30:53;37.17;;;21.60;;
10293;SDS011;5192;50.328;7.610;2023-04-16T08:33:20;41.30;;;23.13;;
10293;SDS011;5192;50.328;7.610;2023-04-16T08:35:48;39.57;;;22.53;;
10293;SDS011;5192;50.328;7.610;2023-04-16T08:38:15;38.67;;;23.23;;
10293;SDS011;5192;50.328;7.610;2023-04-16T08:40:43;43.47;;;23.67;;
10293;SDS011;5192;50.328;7.610;2023-04-16T08:43:11;38.13;;;22.83;;
10293;SDS011;5192;50.328;7.610;2023-04-16T08:45:41;38.30;;;22.73;;
10293;SDS011;5192;50.328;7.610;2023-04-16T08:48:12;39.77;;;22.80;;
10293;SDS011;5192;50.328;7.610;2023-04-16T08:50:43;41.57;;;24.27;;
10293;SDS011;5192;50.328;7.610;2023-04-16T08:53:10;39.60;;;23.47;;
10293;SDS011;5192;50.328;7.610;2023-04-16T08:55:44;45.00;;;23.80;;
10293;SDS011;5192;50.328;7.610;2023-04-16T08:58:22;40.57;;;23.67;;
10293;SDS011;5192;50.328;7.610;2023-04-16T09:00:59;42.97;;;24.17;;
10293;SDS011;5192;50.328;7.610;2023-04-16T09:03:32;38.20;;;23.37;;
10293;SDS011;5192;50.328;7.610;2023-04-16T09:06:03;38.63;;;22.90;;
10293;SDS011;5192;50.328;7.610;2023-04-16T09:08:31;39.73;;;23.20;;
10293;SDS011;5192;50.328;7.610;2023-04-16T09:11:00;39.47;;;23.87;;
10293;SDS011;5192;50.328;7.610;2023-04-16T09:13:25;43.97;;;24.17;;
10293;SDS011;5192;50.328;7.610;2023-04-16T09:15:55;41.87;;;24.47;;
10293;SDS011;5192;50.328;7.610;2023-04-16T09:18:24;39.40;;;24.27;;
10293;SDS011;5192;50.328;7.610;2023-04-16T09:20:53;41.77;;;23.33;;
10293;SDS011;5192;50.328;7.610;2023-04-16T09:23:22;40.67;;;24.23;;
10293;SDS011;5192;50.328;7.610;2023-04-16T09:25:51;44.17;;;24.10;;
10293;SDS011;5192;50.328;7.610;2023-04-16T09:28:54;40.03;;;23.20;;
10293;SDS011;5192;50.328;7.610;2023-04-16T09:31:15;36.27;;;22.57;;
10293;SDS011;5192;50.328;7.610;2023-04-16T09:33:59;38.33;;;21.90;;
10293;SDS011;5192;50.328;7.610;2023-04-16T09:36:41;37.93;;;22.53;;
10293;SDS011;5192;50.328;7.610;2023-04-16T09:39:08;40.60;;;25.10;;
10293;SDS011;5192;50.328;7.610;2023-04-16T09:41:56;44.43;;;26.67;;
10293;SDS011;5192;50.328;7.610;2023-04-16T09:44:33;42.97;;;26.63;;
10293;SDS011;5192;50.328;7.610;2023-04-16T09:47:08;43.57;;;25.30;;
10293;SDS011;5192;50.328;7.610;2023-04-16T09:49:36;48.47;;;27.93;;
10293;SDS011;5192;50.328;7.610;2023-04-16T09:52:14;48.07;;;28.07;;
10293;SDS011;5192;50.328;7.610;2023-04-16T09:54:51;46.80;;;27.80;;
10293;SDS011;5192;50.328;7.610;2023-04-16T09:57:19;46.00;;;27.90;;
10293;SDS011;5192;50.328;7.610;2023-04-16T09:59:51;47.30;;;28.07;;
10293;SDS011;5192;50.328;7.610;2023-04-16T10:02:38;46.67;;;28.90;;
10293;SDS011;5192;50.328;7.610;2023-04-16T10:05:06;47.27;;;28.47;;
10293;SDS011;5192;50.328;7.610;2023-04-16T10:07:34;47.07;;;28.13;;
10293;SDS011;5192;50.328;7.610;2023-04-16T10:10:02;43.33;;;28.50;;
10293;SDS011;5192;50.328;7.610;2023-04-16T10:12:30;40.17;;;27.40;;
10293;SDS011;5192;50.328;7.610;2023-04-16T10:14:58;40.97;;;26.53;;
10293;SDS011;5192;50.328;7.610;2023-04-16T10:17:26;46.03;;;27.00;;
10293;SDS011;5192;50.328;7.610;2023-04-16T10:19:54;35.90;;;24.47;;
10293;SDS011;5192;50.328;7.610;2023-04-16T10:22:21;42.53;;;27.90;;
10293;SDS011;5192;50.328;7.610;2023-04-16T10:24:49;47.17;;;28.20;;
10293;SDS011;5192;50.328;7.610;2023-04-16T10:27:18;44.27;;;26.60;;
10293;SDS011;5192;50.328;7.610;2023-04-16T10:29:47;37.77;;;25.53;;
10293;SDS011;5192;50.328;7.610;2023-04-16T10:32:22;36.73;;;25.20;;
10293;SDS011;5192;50.328;7.610;2023-04-16T10:34:58;37.97;;;25.33;;
10293;SDS011;5192;50.328;7.610;2023-04-16T10:37:29;37.07;;;25.37;;
10293;SDS011;5192;50.328;7.610;2023-04-16T10:39:57;36.47;;;24.63;;
10293;SDS011;5192;50.328;7.610;2023-04-16T10:42:24;35.50;;;23.43;;
10293;SDS011;5192;50.328;7.610;2023-04-16T10:44:53;35.67;;;23.90;;
10293;SDS011;5192;50.328;7.610;2023-04-16T10:47:20;34.50;;;24.07;;
10293;SDS011;5192;50.328;7.610;2023-04-16T10:49:51;34.47;;;23.50;;
10293;SDS011;5192;50.328;7.610;2023-04-16T10:52:18;31.43;;;22.80;;
10293;SDS011;5192;50.328;7.610;2023-04-16T10:54:48;33.13;;;23.77;;
10293;SDS011;5192;50.328;7.610;2023-04-16T10:57:18;34.47;;;23.57;;
10293;SDS011;5192;50.328;7.610;2023-04-16T10:59:45;31.00;;;21.83;;
10293;SDS011;5192;50.328;7.610;2023-04-16T11:02:20;28.50;;;21.03;;
10293;SDS011;5192;50.328;7.610;2023-04-16T11:04:53;29.87;;;22.17;;
10293;SDS011;5192;50.328;7.610;2023-04-16T11:07:33;29.00;;;21.33;;
10293;SDS011;5192;50.328;7.610;2023-04-16T11:10:06;30.37;;;20.97;;
10293;SDS011;5192;50.328;7.610;2023-04-16T11:15:22;27.07;;;20.53;;
10293;SDS011;5192;50.328;7.610;2023-04-16T11:17:54;26.53;;;19.40;;
10293;SDS011;5192;50.328;7.610;2023-04-16T11:20:22;28.20;;;21.83;;
10293;SDS011;5192;50.328;7.610;2023-04-16T11:22:53;28.83;;;20.93;;
10293;SDS011;5192;50.328;7.610;2023-04-16T11:25:24;31.90;;;22.40;;
10293;SDS011;5192;50.328;7.610;2023-04-16T11:28:01;29.43;;;21.13;;
10293;SDS011;5192;50.328;7.610;2023-04-16T11:30:31;28.77;;;20.37;;
10293;SDS011;5192;50.328;7.610;2023-04-16T11:35:44;22.93;;;15.07;;
10293;SDS011;5192;50.328;7.610;2023-04-16T11:38:31;30.17;;;20.97;;
10293;SDS011;5192;50.328;7.610;2023-04-16T11:41:02;30.70;;;21.57;;
10293;SDS011;5192;50.328;7.610;2023-04-16T11:43:29;29.47;;;21.40;;
10293;SDS011;5192;50.328;7.610;2023-04-16T11:45:58;28.07;;;20.70;;
10293;SDS011;5192;50.328;7.610;2023-04-16T11:48:46;25.67;;;20.43;;
10293;SDS011;5192;50.328;7.610;2023-04-16T11:51:13;29.40;;;20.53;;
10293;SDS011;5192;50.328;7.610;2023-04-16T11:53:48;25.90;;;20.87;;
10293;SDS011;5192;50.328;7.610;2023-04-16T11:56:25;27.93;;;20.53;;
10293;SDS011;5192;50.328;7.610;2023-04-16T12:02:03;29.10;;;20.90;;
10293;SDS011;5192;50.328;7.610;2023-04-16T12:04:32;28.87;;;21.50;;
10293;SDS011;5192;50.328;7.610;2023-04-16T12:07:11;27.87;;;20.63;;
10293;SDS011;5192;50.328;7.610;2023-04-16T12:09:40;27.43;;;19.63;;
10293;SDS011;5192;50.328;7.610;2023-04-16T12:14:55;27.10;;;19.97;;
10293;SDS011;5192;50.328;7.610;2023-04-16T12:17:25;28.43;;;21.13;;
10293;SDS011;5192;50.328;7.610;2023-04-16T12:20:14;28.13;;;20.20;;
10293;SDS011;5192;50.328;7.610;2023-04-16T12:22:45;27.77;;;21.17;;
10293;SDS011;5192;50.328;7.610;2023-04-16T12:27:59;28.30;;;21.53;;
10293;SDS011;5192;50.328;7.610;2023-04-16T12:30:27;30.97;;;21.70;;
10293;SDS011;5192;50.328;7.610;2023-04-16T12:35:41;28.63;;;23.00;;
10293;SDS011;5192;50.328;7.610;2023-04-16T12:38:10;29.70;;;21.77;;
10293;SDS011;5192;50.328;7.610;2023-04-16T12:40:36;29.23;;;21.93;;
10293;SDS011;5192;50.328;7.610;2023-04-16T12:43:03;31.00;;;21.83;;
10293;SDS011;5192;50.328;7.610;2023-04-16T12:45:30;26.57;;;21.20;;
10293;SDS011;5192;50.328;7.610;2023-04-16T12:47:58;26.87;;;21.17;;
10293;SDS011;5192;50.328;7.610;2023-04-16T12:50:26;25.20;;;20.00;;
10293;SDS011;5192;50.328;7.610;2023-04-16T12:52:54;25.50;;;19.97;;
10293;SDS011;5192;50.328;7.610;2023-04-16T12:55:20;26.10;;;21.03;;
10293;SDS011;5192;50.328;7.610;2023-04-16T12:57:49;29.40;;;21.87;;
10293;SDS011;5192;50.328;7.610;2023-04-16T13:00:17;28.23;;;22.37;;
10293;SDS011;5192;50.328;7.610;2023-04-16T13:02:46;29.87;;;22.67;;
10293;SDS011;5192;50.328;7.610;2023-04-16T13:05:13;30.67;;;22.30;;
10293;SDS011;5192;50.328;7.610;2023-04-16T13:07:43;25.60;;;21.27;;
10293;SDS011;5192;50.328;7.610;2023-04-16T13:10:13;26.50;;;20.40;;
10293;SDS011;5192;50.328;7.610;2023-04-16T13:12:41;24.97;;;19.63;;
10293;SDS011;5192;50.328;7.610;2023-04-16T13:15:08;25.73;;;19.63;;
10293;SDS011;5192;50.328;7.610;2023-04-16T13:17:36;23.50;;;19.83;;
10293;SDS011;5192;50.328;7.610;2023-04-16T13:20:01;23.83;;;18.83;;
10293;SDS011;5192;50.328;7.610;2023-04-16T13:22:27;22.10;;;18.47;;
10293;SDS011;5192;50.328;7.610;2023-04-16T13:24:54;22.93;;;18.57;;
10293;SDS011;5192;50.328;7.610;2023-04-16T13:27:21;20.90;;;18.07;;
10293;SDS011;5192;50.328;7.610;2023-04-16T13:29:48;24.23;;;20.27;;
10293;SDS011;5192;50.328;7.610;2023-04-16T13:32:15;24.17;;;19.93;;
10293;SDS011;5192;50.328;7.610;2023-04-16T13:34:42;21.30;;;19.00;;
10293;SDS011;5192;50.328;7.610;2023-04-16T13:37:08;26.27;;;20.50;;
10293;SDS011;5192;50.328;7.610;2023-04-16T13:39:36;30.07;;;23.97;;
10293;SDS011;5192;50.328;7.610;2023-04-16T13:42:04;34.50;;;25.93;;
10293;SDS011;5192;50.328;7.610;2023-04-16T13:44:32;33.23;;;25.57;;
10293;SDS011;5192;50.328;7.610;2023-04-16T13:46:59;31.97;;;26.10;;
10293;SDS011;5192;50.328;7.610;2023-04-16T13:49:26;33.40;;;26.17;;
10293;SDS011;5192;50.328;7.610;2023-04-16T13:51:53;32.50;;;25.93;;
10293;SDS011;5192;50.328;7.610;2023-04-16T13:54:22;29.57;;;22.90;;
10293;SDS011;5192;50.328;7.610;2023-04-16T13:56:49;25.83;;;21.87;;
10293;SDS011;5192;50.328;7.610;2023-04-16T13:59:17;25.47;;;18.97;;
10293;SDS011;5192;50.328;7.610;2023-04-16T14:01:45;25.80;;;20.70;;
10293;SDS011;5192;50.328;7.610;2023-04-16T14:04:10;22.97;;;19.20;;
10293;SDS011;5192;50.328;7.610;2023-04-16T14:06:38;24.10;;;18.93;;
10293;SDS011;5192;50.328;7.610;2023-04-16T14:09:06;20.00;;;17.67;;
10293;SDS011;5192;50.328;7.610;2023-04-16T14:11:36;22.27;;;17.83;;
10293;SDS011;5192;50.328;7.610;2023-04-16T14:14:01;22.60;;;18.17;;
10293;SDS011;5192;50.328;7.610;2023-04-16T14:16:29;21.57;;;18.80;;
10293;SDS011;5192;50.328;7.610;2023-04-16T14:18:56;23.27;;;18.10;;
10293;SDS011;5192;50.328;7.610;2023-04-16T14:21:24;19.83;;;17.27;;
10293;SDS011;5192;50.328;7.610;2023-04-16T14:23:52;20.30;;;18.07;;
10293;SDS011;5192;50.328;7.610;2023-04-16T14:26:18;22.53;;;18.53;;
10293;SDS011;5192;50.328;7.610;2023-04-16T14:28:46;21.97;;;17.43;;
10293;SDS011;5192;50.328;7.610;2023-04-16T14:31:15;20.50;;;17.87;;
10293;SDS011;5192;50.328;7.610;2023-04-16T14:33:42;20.80;;;18.60;;
10293;SDS011;5192;50.328;7.610;2023-04-16T14:36:10;20.90;;;17.47;;
10293;SDS011;5192;50.328;7.610;2023-04-16T14:38:36;20.73;;;17.93;;
10293;SDS011;5192;50.328;7.610;2023-04-16T14:41:03;19.20;;;17.13;;
10293;SDS011;5192;50.328;7.610;2023-04-16T14:43:32;23.10;;;17.67;;
10293;SDS011;5192;50.328;7.610;2023-04-16T14:46:00;21.63;;;19.03;;
10293;SDS011;5192;50.328;7.610;2023-04-16T14:48:30;22.00;;;17.87;;
10293;SDS011;5192;50.328;7.610;2023-04-16T14:50:58;19.80;;;16.10;;
10293;SDS011;5192;50.328;7.610;2023-04-16T14:53:25;17.53;;;14.90;;
10293;SDS011;5192;50.328;7.610;2023-04-16T14:55:51;18.60;;;14.50;;